Time;durP1;ratioP1;P1;durP2;ratioP2;P2;SDS_P1;SDS_P2;PMS_P1;PMS_P2;Temp;Humidity;BMP_temperature;BMP_pressure;BME280_temperature;BME280_humidity;BME280_pressure;Samples;Min_cycle;Max_cycle;Signal;HPM_P1;HPM_P2
2022/06/25 00:00:00;;;;;;;4.55;2.30;;;;;;;;;;5092686;28;20380;-68
2022/06/25 00:02:25;;;;;;;7.60;2.30;;;;;;;;;;5092661;28;20157;-67
2022/06/25 00:07:35;;;;;;;4.57;2.45;;;;;;;;;;5091217;28;20026;-67
2022/06/25 00:10:00;;;;;;;3.88;2.25;;;;;;;;;;5092486;28;20452;-67
2022/06/25 00:12:32;;;;;;;6.20;3.13;;;;;;;;;;5092444;28;20476;-67
2022/06/25 00:14:59;;;;;;;5.75;2.60;;;;;;;;;;5092237;28;20479;-67
2022/06/25 00:17:25;;;;;;;6.30;2.50;;;;;;;;;;5092210;28;20031;-67
2022/06/25 00:19:51;;;;;;;5.55;2.47;;;;;;;;;;5092371;28;20028;-67
2022/06/25 00:22:17;;;;;;;5.38;2.50;;;;;;;;;;5092329;28;20065;-67
2022/06/25 00:24:43;;;;;;;6.93;2.92;;;;;;;;;;5091967;28;20036;-68
2022/06/25 00:27:08;;;;;;;2.63;2.15;;;;;;;;;;5091867;28;20028;-67
2022/06/25 00:29:34;;;;;;;4.75;2.67;;;;;;;;;;5092229;28;20024;-67
2022/06/25 00:31:59;;;;;;;3.95;2.42;;;;;;;;;;5092251;28;20051;-68
2022/06/25 00:34:26;;;;;;;7.65;2.80;;;;;;;;;;5092128;28;20111;-66
2022/06/25 00:36:52;;;;;;;3.33;2.42;;;;;;;;;;5092146;28;20024;-67
2022/06/25 00:39:18;;;;;;;3.25;2.50;;;;;;;;;;5092092;28;20101;-67
2022/06/25 00:41:43;;;;;;;4.68;2.63;;;;;;;;;;5094197;28;20427;-68
2022/06/25 00:44:09;;;;;;;5.95;3.00;;;;;;;;;;5096089;28;20362;-67
2022/06/25 00:46:35;;;;;;;5.97;2.83;;;;;;;;;;5096284;28;20024;-67
2022/06/25 00:49:02;;;;;;;3.92;2.67;;;;;;;;;;5095673;28;20043;-67
2022/06/25 00:51:32;;;;;;;4.90;2.65;;;;;;;;;;5095711;28;20042;-67
2022/06/25 00:54:04;;;;;;;5.27;2.80;;;;;;;;;;5095740;28;20024;-68
2022/06/25 00:56:35;;;;;;;4.15;2.53;;;;;;;;;;5096018;28;20016;-68
2022/06/25 00:59:03;;;;;;;9.45;2.70;;;;;;;;;;5095673;28;20118;-68
2022/06/25 01:01:32;;;;;;;5.53;3.00;;;;;;;;;;5095986;28;20552;-67
2022/06/25 01:03:57;;;;;;;4.72;2.80;;;;;;;;;;5095702;28;20415;-67
2022/06/25 01:06:23;;;;;;;3.65;2.80;;;;;;;;;;5095717;28;20111;-65
2022/06/25 01:08:49;;;;;;;6.65;3.20;;;;;;;;;;5095867;28;20028;-68
2022/06/25 01:11:15;;;;;;;4.40;2.95;;;;;;;;;;5095315;28;20394;-67
2022/06/25 01:13:41;;;;;;;7.65;2.85;;;;;;;;;;5095825;28;20153;-67
2022/06/25 01:16:06;;;;;;;5.78;2.75;;;;;;;;;;5095760;28;20052;-68
2022/06/25 01:18:32;;;;;;;6.50;2.80;;;;;;;;;;5078710;28;20037;-67
2022/06/25 01:20:59;;;;;;;9.98;3.05;;;;;;;;;;5075061;28;20158;-67
2022/06/25 01:23:25;;;;;;;6.60;3.10;;;;;;;;;;5075116;28;20060;-67
2022/06/25 01:25:51;;;;;;;8.30;3.15;;;;;;;;;;5075106;28;20468;-67
2022/06/25 01:28:17;;;;;;;7.35;3.42;;;;;;;;;;5075289;28;20024;-68
2022/06/25 01:30:42;;;;;;;9.77;3.38;;;;;;;;;;5075170;28;20016;-67
2022/06/25 01:33:09;;;;;;;3.92;3.20;;;;;;;;;;5074956;28;20120;-67
2022/06/25 01:35:35;;;;;;;3.95;3.03;;;;;;;;;;5074550;28;20036;-66
2022/06/25 01:38:01;;;;;;;5.00;3.20;;;;;;;;;;5075159;28;20032;-67
2022/06/25 01:40:27;;;;;;;6.60;3.30;;;;;;;;;;5075140;28;20530;-67
2022/06/25 01:43:01;;;;;;;5.90;3.03;;;;;;;;;;5073577;28;20103;-68
2022/06/25 01:45:26;;;;;;;8.15;3.55;;;;;;;;;;5075167;28;20431;-68
2022/06/25 01:47:52;;;;;;;8.40;2.95;;;;;;;;;;5074934;28;20035;-67
2022/06/25 01:50:18;;;;;;;5.32;3.50;;;;;;;;;;5074481;28;20028;-68
2022/06/25 01:52:43;;;;;;;6.82;3.40;;;;;;;;;;5074008;28;20029;-67
2022/06/25 01:55:11;;;;;;;7.55;3.30;;;;;;;;;;5074643;28;20098;-66
2022/06/25 01:57:37;;;;;;;5.68;3.38;;;;;;;;;;5074748;28;20497;-67
2022/06/25 02:00:10;;;;;;;4.13;3.15;;;;;;;;;;5074528;28;20025;-67
2022/06/25 02:02:37;;;;;;;6.78;3.50;;;;;;;;;;5074602;28;20024;-68
2022/06/25 02:05:06;;;;;;;8.52;3.40;;;;;;;;;;5074126;28;20029;-67
2022/06/25 02:07:32;;;;;;;6.63;3.70;;;;;;;;;;5074489;28;20025;-68
2022/06/25 02:09:58;;;;;;;5.40;3.63;;;;;;;;;;5074101;28;20107;-67
2022/06/25 02:12:23;;;;;;;6.78;4.40;;;;;;;;;;5074435;28;20032;-67
2022/06/25 02:14:49;;;;;;;9.48;3.80;;;;;;;;;;5074350;28;20028;-66
2022/06/25 02:17:14;;;;;;;7.38;3.88;;;;;;;;;;5078857;28;20064;-66
2022/06/25 02:19:40;;;;;;;5.72;3.60;;;;;;;;;;5094293;28;20042;-67
2022/06/25 02:22:06;;;;;;;6.03;3.30;;;;;;;;;;5094545;28;20526;-68
2022/06/25 02:24:32;;;;;;;11.77;3.97;;;;;;;;;;5093828;28;20127;-68
2022/06/25 02:26:57;;;;;;;5.95;3.42;;;;;;;;;;5094375;28;20444;-68
2022/06/25 02:29:23;;;;;;;6.60;3.42;;;;;;;;;;5094341;28;20495;-68
2022/06/25 02:31:49;;;;;;;5.40;3.42;;;;;;;;;;5093667;28;20028;-67
2022/06/25 02:34:14;;;;;;;9.68;3.65;;;;;;;;;;5094241;28;20027;-67
2022/06/25 02:36:40;;;;;;;4.80;3.53;;;;;;;;;;5094518;28;20414;-67
2022/06/25 02:39:05;;;;;;;11.30;3.70;;;;;;;;;;5094066;28;20107;-66
2022/06/25 02:41:31;;;;;;;6.68;3.53;;;;;;;;;;5094082;28;20027;-68
2022/06/25 02:43:56;;;;;;;9.25;3.80;;;;;;;;;;5093885;28;20031;-67
2022/06/25 02:46:22;;;;;;;6.40;3.40;;;;;;;;;;5093911;28;20020;-67
2022/06/25 02:48:48;;;;;;;5.15;3.92;;;;;;;;;;5093901;28;20110;-66
2022/06/25 02:51:13;;;;;;;9.43;3.50;;;;;;;;;;5094024;28;20028;-67
2022/06/25 02:53:39;;;;;;;5.03;3.50;;;;;;;;;;5093747;28;20032;-66
2022/06/25 02:58:56;;;;;;;5.50;3.70;;;;;;;;;;5094052;28;20035;-67
2022/06/25 03:01:27;;;;;;;9.93;3.92;;;;;;;;;;5093428;28;20021;-67
2022/06/25 03:03:54;;;;;;;6.55;3.90;;;;;;;;;;5092516;28;20028;-66
2022/06/25 03:06:20;;;;;;;7.55;4.68;;;;;;;;;;5093264;28;20431;-67
2022/06/25 03:08:47;;;;;;;6.90;4.20;;;;;;;;;;5093288;28;20024;-67
2022/06/25 03:11:13;;;;;;;8.02;4.18;;;;;;;;;;5093360;28;20031;-67
2022/06/25 03:13:39;;;;;;;6.20;3.83;;;;;;;;;;5093430;28;20028;-67
2022/06/25 03:16:05;;;;;;;7.63;3.70;;;;;;;;;;5093131;28;20099;-66
2022/06/25 03:18:32;;;;;;;8.80;3.80;;;;;;;;;;5092897;28;20532;-67
2022/06/25 03:20:57;;;;;;;7.07;3.75;;;;;;;;;;5093180;28;20431;-65
2022/06/25 03:23:23;;;;;;;11.10;4.15;;;;;;;;;;5093021;28;20028;-67
2022/06/25 03:25:49;;;;;;;8.10;3.97;;;;;;;;;;5093241;28;20040;-66
2022/06/25 03:28:15;;;;;;;9.52;4.57;;;;;;;;;;5093349;28;20024;-65
2022/06/25 03:30:41;;;;;;;8.60;4.32;;;;;;;;;;5092930;28;20028;-66
2022/06/25 03:33:06;;;;;;;8.77;4.30;;;;;;;;;;5092969;28;20114;-67
2022/06/25 03:35:32;;;;;;;8.88;4.40;;;;;;;;;;5093000;28;20128;-66
2022/06/25 03:37:58;;;;;;;5.90;4.38;;;;;;;;;;5093041;28;20024;-66
2022/06/25 03:40:23;;;;;;;11.45;4.80;;;;;;;;;;5093127;28;20042;-67
2022/06/25 03:42:49;;;;;;;12.45;4.78;;;;;;;;;;5093040;28;20020;-66
2022/06/25 03:45:15;;;;;;;7.43;4.47;;;;;;;;;;5091365;28;20031;-66
2022/06/25 03:47:41;;;;;;;6.03;4.65;;;;;;;;;;5092954;28;20028;-66
2022/06/25 03:50:07;;;;;;;8.82;4.70;;;;;;;;;;5092970;28;20439;-67
2022/06/25 03:52:34;;;;;;;9.68;4.82;;;;;;;;;;5093160;28;20024;-64
2022/06/25 03:54:59;;;;;;;10.73;4.63;;;;;;;;;;5092695;28;20035;-66
2022/06/25 03:57:25;;;;;;;9.20;4.68;;;;;;;;;;5093048;28;20020;-65
2022/06/25 03:59:51;;;;;;;14.90;5.28;;;;;;;;;;5092424;28;20382;-66
2022/06/25 04:02:17;;;;;;;12.10;4.78;;;;;;;;;;5092773;28;20024;-64
2022/06/25 04:04:43;;;;;;;8.85;4.63;;;;;;;;;;5092627;28;20031;-65
2022/06/25 04:07:09;;;;;;;10.23;4.38;;;;;;;;;;5092612;28;20024;-65
2022/06/25 04:09:34;;;;;;;11.50;5.10;;;;;;;;;;5092575;28;20031;-65
2022/06/25 04:12:00;;;;;;;7.03;4.38;;;;;;;;;;5092659;28;20032;-65
2022/06/25 04:14:25;;;;;;;8.95;4.70;;;;;;;;;;5092589;28;20039;-65
2022/06/25 04:16:51;;;;;;;7.85;4.45;;;;;;;;;;5092158;28;20032;-65
2022/06/25 04:19:16;;;;;;;11.88;4.63;;;;;;;;;;5092347;28;20400;-65
2022/06/25 04:21:47;;;;;;;7.43;4.40;;;;;;;;;;5093097;28;20031;-67
2022/06/25 04:24:13;;;;;;;10.07;4.88;;;;;;;;;;5092148;28;20080;-66
2022/06/25 04:26:43;;;;;;;9.83;4.50;;;;;;;;;;5092381;28;20168;-64
2022/06/25 04:29:08;;;;;;;6.45;4.60;;;;;;;;;;5092094;28;20264;-65
2022/06/25 04:31:36;;;;;;;12.55;4.70;;;;;;;;;;5092527;28;20030;-65
2022/06/25 04:34:03;;;;;;;13.23;4.70;;;;;;;;;;5092597;28;20043;-65
2022/06/25 04:36:29;;;;;;;5.78;4.40;;;;;;;;;;5091587;28;20044;-65
2022/06/25 04:38:55;;;;;;;8.45;4.55;;;;;;;;;;5092234;28;20035;-65
2022/06/25 04:41:20;;;;;;;6.13;4.07;;;;;;;;;;5092207;28;20028;-66
2022/06/25 04:43:46;;;;;;;7.68;4.70;;;;;;;;;;5092043;28;20028;-65
2022/06/25 04:46:11;;;;;;;6.47;4.07;;;;;;;;;;5092233;28;20024;-64
2022/06/25 04:48:37;;;;;;;7.05;4.25;;;;;;;;;;5092283;28;20080;-65
2022/06/25 04:51:03;;;;;;;9.00;4.60;;;;;;;;;;5092097;28;20024;-65
2022/06/25 04:53:28;;;;;;;8.68;4.63;;;;;;;;;;5092220;28;20477;-66
2022/06/25 04:55:54;;;;;;;9.27;4.60;;;;;;;;;;5092092;28;20032;-65
2022/06/25 04:58:20;;;;;;;6.05;4.30;;;;;;;;;;5091851;28;20484;-65
2022/06/25 05:00:45;;;;;;;7.72;4.40;;;;;;;;;;5092208;28;20070;-66
2022/06/25 05:03:11;;;;;;;9.75;4.32;;;;;;;;;;5091932;28;20035;-66
2022/06/25 05:05:36;;;;;;;8.50;5.00;;;;;;;;;;5092138;28;20024;-65
2022/06/25 05:08:03;;;;;;;9.80;4.72;;;;;;;;;;5092147;28;20020;-65
2022/06/25 05:10:28;;;;;;;7.80;4.82;;;;;;;;;;5092099;28;20111;-66
2022/06/25 05:13:12;;;;;;;8.55;4.53;;;;;;;;;;5091916;28;20099;-65
2022/06/25 05:15:39;;;;;;;9.32;4.32;;;;;;;;;;5092071;28;20028;-65
2022/06/25 05:18:06;;;;;;;9.73;4.57;;;;;;;;;;5091874;28;20050;-66
2022/06/25 05:20:32;;;;;;;8.23;4.65;;;;;;;;;;5091803;28;20020;-66
2022/06/25 05:22:57;;;;;;;9.70;4.70;;;;;;;;;;5091857;28;20024;-65
2022/06/25 05:25:24;;;;;;;9.77;4.53;;;;;;;;;;5091714;28;20059;-65
2022/06/25 05:27:49;;;;;;;8.02;4.60;;;;;;;;;;5093396;28;20397;-67
2022/06/25 05:30:15;;;;;;;8.50;4.28;;;;;;;;;;5095645;28;20024;-66
2022/06/25 05:32:40;;;;;;;10.20;4.90;;;;;;;;;;5095439;28;20058;-67
2022/06/25 05:35:06;;;;;;;15.48;5.10;;;;;;;;;;5095294;28;20092;-66
2022/06/25 05:37:32;;;;;;;7.70;4.55;;;;;;;;;;5095563;28;20035;-66
2022/06/25 05:39:57;;;;;;;12.15;4.50;;;;;;;;;;5095337;28;20067;-65
2022/06/25 05:42:23;;;;;;;9.77;5.35;;;;;;;;;;5095093;28;20081;-66
2022/06/25 05:44:48;;;;;;;8.55;4.50;;;;;;;;;;5095267;28;20028;-67
2022/06/25 05:47:14;;;;;;;8.73;4.80;;;;;;;;;;5095194;28;20365;-67
2022/06/25 05:49:39;;;;;;;10.25;5.07;;;;;;;;;;5093988;28;20059;-65
2022/06/25 05:52:06;;;;;;;8.38;5.28;;;;;;;;;;5095103;28;20488;-65
2022/06/25 05:54:31;;;;;;;21.67;6.00;;;;;;;;;;5094944;28;20028;-66
2022/06/25 05:56:57;;;;;;;11.90;5.70;;;;;;;;;;5094927;28;20020;-65
2022/06/25 05:59:23;;;;;;;10.63;5.32;;;;;;;;;;5095034;28;20066;-65
2022/06/25 06:01:48;;;;;;;7.53;5.32;;;;;;;;;;5095140;28;20016;-67
2022/06/25 06:04:14;;;;;;;14.32;4.88;;;;;;;;;;5094678;28;20358;-67
2022/06/25 06:06:39;;;;;;;6.15;4.68;;;;;;;;;;5093550;28;20032;-68
2022/06/25 06:09:05;;;;;;;10.38;4.93;;;;;;;;;;5094738;28;20099;-67
2022/06/25 06:11:30;;;;;;;11.85;4.93;;;;;;;;;;5094526;28;20435;-67
2022/06/25 06:13:56;;;;;;;8.57;5.10;;;;;;;;;;5094909;28;20423;-67
2022/06/25 06:16:22;;;;;;;11.57;4.20;;;;;;;;;;5094703;28;20020;-67
2022/06/25 06:18:47;;;;;;;8.57;4.55;;;;;;;;;;5094488;28;20468;-67
2022/06/25 06:21:13;;;;;;;12.05;5.72;;;;;;;;;;5094577;28;20016;-68
2022/06/25 06:23:38;;;;;;;10.00;4.82;;;;;;;;;;5094432;28;20139;-67
2022/06/25 06:26:04;;;;;;;7.57;4.72;;;;;;;;;;5094244;28;20512;-67
2022/06/25 06:28:29;;;;;;;14.18;4.95;;;;;;;;;;5094685;28;20020;-67
2022/06/25 06:30:55;;;;;;;8.68;4.57;;;;;;;;;;5094377;28;20024;-67
2022/06/25 06:33:21;;;;;;;11.20;4.63;;;;;;;;;;5094311;28;20032;-67
2022/06/25 06:35:47;;;;;;;7.90;4.53;;;;;;;;;;5094714;28;20024;-67
2022/06/25 06:38:12;;;;;;;8.27;4.60;;;;;;;;;;5093873;28;20488;-67
2022/06/25 06:40:38;;;;;;;8.98;5.65;;;;;;;;;;5094275;28;20052;-67
2022/06/25 06:43:03;;;;;;;8.45;4.93;;;;;;;;;;5093780;28;20452;-67
2022/06/25 06:45:29;;;;;;;7.53;5.03;;;;;;;;;;5094201;28;20455;-67
2022/06/25 06:47:55;;;;;;;9.13;4.97;;;;;;;;;;5094263;28;20384;-67
2022/06/25 06:50:20;;;;;;;7.80;4.97;;;;;;;;;;5094210;28;20466;-67
2022/06/25 06:52:46;;;;;;;9.38;5.05;;;;;;;;;;5093807;28;20077;-67
2022/06/25 06:55:11;;;;;;;7.40;5.03;;;;;;;;;;5093847;28;20039;-67
2022/06/25 06:57:37;;;;;;;7.85;4.90;;;;;;;;;;5093981;28;20111;-67
2022/06/25 07:00:06;;;;;;;8.48;5.07;;;;;;;;;;5093873;28;20481;-67
2022/06/25 07:02:33;;;;;;;11.20;5.00;;;;;;;;;;5093564;28;20111;-66
2022/06/25 07:04:59;;;;;;;9.70;5.57;;;;;;;;;;5093614;28;20111;-67
2022/06/25 07:07:24;;;;;;;7.22;5.57;;;;;;;;;;5093569;28;20044;-67
2022/06/25 07:09:50;;;;;;;8.75;5.55;;;;;;;;;;5093764;28;20381;-66
2022/06/25 07:12:16;;;;;;;8.20;5.50;;;;;;;;;;5093779;28;20069;-66
2022/06/25 07:14:42;;;;;;;8.75;5.80;;;;;;;;;;5093615;28;20039;-66
2022/06/25 07:17:07;;;;;;;10.75;5.78;;;;;;;;;;5093602;28;20032;-66
2022/06/25 07:19:33;;;;;;;9.80;6.13;;;;;;;;;;5093476;28;20055;-66
2022/06/25 07:21:59;;;;;;;10.32;7.05;;;;;;;;;;5093043;28;20098;-67
2022/06/25 07:24:25;;;;;;;11.15;6.35;;;;;;;;;;5093076;28;20409;-66
2022/06/25 07:26:51;;;;;;;12.30;6.57;;;;;;;;;;5093335;28;20039;-66
2022/06/25 07:29:17;;;;;;;10.07;6.85;;;;;;;;;;5093248;28;20428;-66
2022/06/25 07:31:42;;;;;;;16.48;7.30;;;;;;;;;;5093295;28;20024;-66
2022/06/25 07:34:08;;;;;;;14.07;6.18;;;;;;;;;;5093350;28;20481;-67
2022/06/25 07:36:34;;;;;;;12.63;6.60;;;;;;;;;;5093010;28;20027;-67
2022/06/25 07:39:00;;;;;;;11.27;6.32;;;;;;;;;;5093085;28;20032;-67
2022/06/25 07:41:27;;;;;;;12.65;6.72;;;;;;;;;;5093105;28;20016;-67
2022/06/25 07:43:53;;;;;;;10.60;6.53;;;;;;;;;;5092871;28;20016;-67
2022/06/25 07:46:19;;;;;;;12.90;7.13;;;;;;;;;;5093098;28;20077;-65
2022/06/25 07:48:45;;;;;;;18.48;7.13;;;;;;;;;;5093032;28;20016;-67
2022/06/25 07:53:54;;;;;;;22.33;8.90;;;;;;;;;;5092829;28;20055;-67
2022/06/25 07:56:20;;;;;;;12.35;6.47;;;;;;;;;;5092733;28;20051;-67
2022/06/25 07:58:46;;;;;;;12.82;6.55;;;;;;;;;;5092792;28;20042;-67
2022/06/25 08:01:11;;;;;;;14.23;6.50;;;;;;;;;;5092518;28;20035;-66
2022/06/25 08:03:37;;;;;;;37.35;11.52;;;;;;;;;;5092549;28;20108;-67
2022/06/25 08:06:02;;;;;;;30.52;11.00;;;;;;;;;;5092333;28;20063;-67
2022/06/25 08:08:28;;;;;;;48.42;14.13;;;;;;;;;;5092531;28;20039;-68
2022/06/25 08:10:54;;;;;;;14.07;7.57;;;;;;;;;;5092500;28;20063;-65
2022/06/25 08:13:19;;;;;;;11.27;7.10;;;;;;;;;;5092231;28;20028;-64
2022/06/25 08:15:45;;;;;;;11.40;6.55;;;;;;;;;;5091312;28;20119;-67
2022/06/25 08:18:11;;;;;;;12.18;6.70;;;;;;;;;;5092198;28;20032;-67
2022/06/25 08:20:36;;;;;;;13.10;7.20;;;;;;;;;;5092280;28;20107;-68
2022/06/25 08:23:02;;;;;;;10.88;7.40;;;;;;;;;;5091906;28;20024;-67
2022/06/25 08:25:27;;;;;;;15.63;6.88;;;;;;;;;;5091422;28;20063;-66
2022/06/25 08:27:53;;;;;;;12.98;7.18;;;;;;;;;;5092430;28;20032;-66
2022/06/25 08:30:23;;;;;;;17.98;8.75;;;;;;;;;;5092249;28;20031;-68
2022/06/25 08:32:49;;;;;;;14.60;8.32;;;;;;;;;;5092419;28;20028;-65
2022/06/25 08:35:15;;;;;;;11.77;7.90;;;;;;;;;;5091499;28;20516;-66
2022/06/25 08:37:48;;;;;;;10.93;7.85;;;;;;;;;;5092377;28;20028;-67
2022/06/25 08:40:16;;;;;;;14.60;8.73;;;;;;;;;;5092315;28;20496;-68
2022/06/25 08:42:43;;;;;;;14.40;9.10;;;;;;;;;;5092413;28;20082;-67
2022/06/25 08:45:09;;;;;;;13.70;7.90;;;;;;;;;;5091935;28;20469;-67
2022/06/25 08:47:46;;;;;;;17.33;7.35;;;;;;;;;;5092328;28;20036;-68
2022/06/25 08:50:14;;;;;;;11.85;6.97;;;;;;;;;;5092474;28;20036;-67
2022/06/25 08:52:46;;;;;;;12.25;6.60;;;;;;;;;;5092317;28;20499;-65
2022/06/25 08:55:21;;;;;;;7.60;5.85;;;;;;;;;;5092136;28;20028;-66
2022/06/25 08:57:47;;;;;;;9.80;6.57;;;;;;;;;;5092090;28;20020;-66
2022/06/25 09:00:13;;;;;;;12.82;6.72;;;;;;;;;;5092357;28;20073;-68
2022/06/25 09:02:39;;;;;;;14.15;6.13;;;;;;;;;;5095038;28;20469;-67
2022/06/25 09:05:09;;;;;;;10.77;6.25;;;;;;;;;;5095330;28;20028;-67
2022/06/25 09:07:35;;;;;;;8.65;5.53;;;;;;;;;;5095798;28;20031;-65
2022/06/25 09:10:00;;;;;;;6.88;5.53;;;;;;;;;;5095799;28;20079;-66
2022/06/25 09:12:26;;;;;;;12.07;5.72;;;;;;;;;;5095776;28;20103;-67
2022/06/25 09:14:51;;;;;;;9.43;5.75;;;;;;;;;;5095606;28;20032;-67
2022/06/25 09:17:17;;;;;;;7.30;5.88;;;;;;;;;;5095426;28;20043;-66
2022/06/25 09:19:53;;;;;;;9.52;6.45;;;;;;;;;;5095790;28;20024;-67
2022/06/25 09:22:22;;;;;;;9.80;5.80;;;;;;;;;;5095911;28;20456;-66
2022/06/25 09:24:54;;;;;;;11.52;6.82;;;;;;;;;;5095764;28;20400;-67
2022/06/25 09:27:40;;;;;;;8.70;5.78;;;;;;;;;;5095458;28;20386;-67
2022/06/25 09:30:16;;;;;;;8.02;5.65;;;;;;;;;;5095074;28;20042;-66
2022/06/25 09:32:47;;;;;;;8.43;6.70;;;;;;;;;;5095562;28;20039;-64
2022/06/25 09:35:14;;;;;;;8.00;6.30;;;;;;;;;;5095208;28;20114;-66
2022/06/25 09:37:40;;;;;;;9.05;5.70;;;;;;;;;;5094874;28;20432;-66
2022/06/25 09:40:09;;;;;;;8.38;6.07;;;;;;;;;;5095526;28;20024;-64
2022/06/25 09:42:35;;;;;;;12.40;6.10;;;;;;;;;;5094192;28;20031;-64
2022/06/25 09:45:06;;;;;;;8.88;6.00;;;;;;;;;;5095130;28;20671;-64
2022/06/25 09:47:39;;;;;;;7.78;5.75;;;;;;;;;;5095131;28;20069;-65
2022/06/25 09:50:08;;;;;;;8.23;5.50;;;;;;;;;;5095118;28;20044;-65
2022/06/25 09:52:35;;;;;;;8.15;5.15;;;;;;;;;;5095256;28;20024;-64
2022/06/25 09:55:01;;;;;;;8.65;5.88;;;;;;;;;;5095078;28;20095;-66
2022/06/25 09:57:27;;;;;;;8.93;5.10;;;;;;;;;;5095003;28;20054;-64
2022/06/25 09:59:55;;;;;;;8.65;5.38;;;;;;;;;;5094846;28;20028;-65
2022/06/25 10:02:24;;;;;;;9.25;5.30;;;;;;;;;;5094920;28;20107;-64
2022/06/25 10:04:50;;;;;;;8.32;4.97;;;;;;;;;;5095320;28;20403;-66
2022/06/25 10:07:17;;;;;;;8.77;5.50;;;;;;;;;;5094794;28;20028;-65
2022/06/25 10:09:45;;;;;;;9.43;5.60;;;;;;;;;;5094689;28;20515;-64
2022/06/25 10:12:10;;;;;;;9.32;5.47;;;;;;;;;;5093628;28;20081;-65
2022/06/25 10:14:37;;;;;;;11.82;5.60;;;;;;;;;;5094052;28;20020;-64
2022/06/25 10:17:04;;;;;;;6.85;5.50;;;;;;;;;;5090458;28;20351;-66
2022/06/25 10:19:31;;;;;;;9.35;5.63;;;;;;;;;;5074124;28;20071;-64
2022/06/25 10:21:59;;;;;;;8.63;5.57;;;;;;;;;;5074057;28;20497;-63
2022/06/25 10:24:25;;;;;;;9.18;5.93;;;;;;;;;;5074239;28;20174;-67
2022/06/25 10:26:51;;;;;;;6.70;5.00;;;;;;;;;;5074480;28;20052;-67
2022/06/25 10:29:27;;;;;;;9.45;5.28;;;;;;;;;;5073844;28;20047;-67
2022/06/25 10:32:14;;;;;;;12.07;4.75;;;;;;;;;;5074178;28;20032;-68
2022/06/25 10:35:00;;;;;;;9.85;5.50;;;;;;;;;;5074237;28;20154;-67
2022/06/25 10:37:26;;;;;;;7.50;4.88;;;;;;;;;;5074228;28;20027;-67
2022/06/25 10:39:53;;;;;;;9.10;4.78;;;;;;;;;;5074095;28;20029;-67
2022/06/25 10:45:09;;;;;;;7.05;4.40;;;;;;;;;;5073598;28;20039;-67
2022/06/25 10:47:46;;;;;;;8.95;4.35;;;;;;;;;;5073562;28;20093;-67
2022/06/25 10:50:21;;;;;;;8.00;4.60;;;;;;;;;;5073952;28;20099;-67
2022/06/25 10:53:05;;;;;;;5.95;4.43;;;;;;;;;;5072559;28;20111;-67
2022/06/25 10:55:56;;;;;;;6.75;4.70;;;;;;;;;;5084224;28;20043;-66
2022/06/25 10:58:23;;;;;;;7.63;4.53;;;;;;;;;;5093939;28;20024;-66
2022/06/25 11:01:01;;;;;;;6.60;4.05;;;;;;;;;;5093718;28;20028;-65
2022/06/25 11:03:32;;;;;;;5.90;3.67;;;;;;;;;;5093819;28;20024;-66
2022/06/25 11:06:18;;;;;;;9.00;4.03;;;;;;;;;;5093400;28;20039;-64
2022/06/25 11:08:44;;;;;;;8.50;4.13;;;;;;;;;;5093367;28;20028;-64
2022/06/25 11:11:10;;;;;;;4.97;3.83;;;;;;;;;;5093550;28;20027;-64
2022/06/25 11:13:40;;;;;;;7.10;3.80;;;;;;;;;;5093737;28;20073;-64
2022/06/25 11:16:16;;;;;;;5.50;3.90;;;;;;;;;;5093603;28;20028;-65
2022/06/25 11:18:50;;;;;;;7.35;3.95;;;;;;;;;;5093436;28;20036;-64
2022/06/25 11:21:29;;;;;;;8.80;4.40;;;;;;;;;;5093463;28;20132;-66
2022/06/25 11:24:09;;;;;;;5.55;3.90;;;;;;;;;;5093482;28;20127;-67
2022/06/25 11:29:25;;;;;;;6.78;4.25;;;;;;;;;;5093217;28;20516;-64
2022/06/25 11:31:52;;;;;;;5.80;4.40;;;;;;;;;;5093476;28;20024;-66
2022/06/25 11:34:20;;;;;;;4.95;4.10;;;;;;;;;;5093383;28;20028;-66
2022/06/25 11:36:58;;;;;;;8.60;4.72;;;;;;;;;;5093280;28;20042;-67
2022/06/25 11:39:24;;;;;;;7.82;4.35;;;;;;;;;;5093294;28;20024;-67
2022/06/25 11:41:51;;;;;;;11.35;4.38;;;;;;;;;;5093239;28;20392;-66
2022/06/25 11:44:17;;;;;;;7.25;4.20;;;;;;;;;;5092353;28;20408;-65
2022/06/25 11:46:44;;;;;;;6.40;4.10;;;;;;;;;;5093153;28;20024;-65
2022/06/25 11:49:10;;;;;;;6.15;4.35;;;;;;;;;;5092714;28;20030;-64
2022/06/25 11:51:46;;;;;;;5.90;3.72;;;;;;;;;;5093203;28;20026;-67
2022/06/25 11:54:12;;;;;;;7.45;4.22;;;;;;;;;;5093058;28;20115;-67
2022/06/25 11:56:46;;;;;;;9.25;3.83;;;;;;;;;;5092897;28;20054;-67
2022/06/25 11:59:12;;;;;;;8.70;3.65;;;;;;;;;;5092567;28;20091;-67
2022/06/25 12:01:37;;;;;;;6.68;3.88;;;;;;;;;;5092877;28;20077;-67
2022/06/25 12:04:03;;;;;;;8.70;4.45;;;;;;;;;;5092471;28;20035;-67
2022/06/25 12:06:29;;;;;;;5.28;4.10;;;;;;;;;;5092432;28;20032;-67
2022/06/25 12:08:54;;;;;;;5.60;3.10;;;;;;;;;;5092837;28;20024;-67
2022/06/25 12:11:20;;;;;;;4.00;3.45;;;;;;;;;;5092597;28;20032;-66
2022/06/25 12:13:46;;;;;;;6.45;3.90;;;;;;;;;;5092392;28;20034;-66
2022/06/25 12:16:11;;;;;;;7.55;3.22;;;;;;;;;;5092622;28;20032;-67
2022/06/25 12:18:43;;;;;;;6.60;3.65;;;;;;;;;;5105895;28;20028;-67
2022/06/25 12:21:17;;;;;;;8.80;3.47;;;;;;;;;;5112761;28;20106;-67
2022/06/25 12:24:12;;;;;;;8.65;4.03;;;;;;;;;;5112954;28;20059;-67
2022/06/25 12:26:41;;;;;;;8.82;4.05;;;;;;;;;;5110598;28;20032;-66
2022/06/25 12:29:18;;;;;;;5.65;3.90;;;;;;;;;;5105920;28;20099;-67
2022/06/25 12:31:53;;;;;;;5.03;3.15;;;;;;;;;;5092429;28;20031;-66
2022/06/25 12:34:18;;;;;;;5.82;3.38;;;;;;;;;;5092649;28;20492;-67
2022/06/25 12:36:48;;;;;;;5.55;3.47;;;;;;;;;;5091970;28;20062;-67
2022/06/25 12:39:36;;;;;;;8.05;3.35;;;;;;;;;;5092062;28;20030;-66
2022/06/25 12:42:04;;;;;;;3.60;2.90;;;;;;;;;;5092311;28;20435;-68
2022/06/25 12:44:31;;;;;;;5.03;3.03;;;;;;;;;;5091970;28;20023;-67
2022/06/25 12:47:11;;;;;;;7.70;3.50;;;;;;;;;;5092397;28;20020;-68
2022/06/25 12:49:40;;;;;;;;;;;;;;;;;;5092908;28;20028;-67
2022/06/25 12:52:06;;;;;;;3.40;2.90;;;;;;;;;;5092292;28;20328;-65
2022/06/25 12:55:01;;;;;;;6.45;3.15;;;;;;;;;;5092378;28;20032;-67
2022/06/25 12:57:29;;;;;;;6.13;2.83;;;;;;;;;;5077981;28;20040;-67
2022/06/25 12:59:57;;;;;;;7.32;3.60;;;;;;;;;;5091843;28;20020;-67
2022/06/25 13:02:23;;;;;;;4.60;3.10;;;;;;;;;;5092146;28;20023;-67
2022/06/25 13:04:50;;;;;;;5.78;3.33;;;;;;;;;;5092241;28;20476;-67
2022/06/25 13:07:16;;;;;;;5.25;3.22;;;;;;;;;;5091936;28;20088;-67
2022/06/25 13:09:43;;;;;;;4.03;3.03;;;;;;;;;;5092204;28;20047;-66
2022/06/25 13:12:09;;;;;;;6.00;3.00;;;;;;;;;;5091790;28;20051;-68
2022/06/25 13:14:36;;;;;;;5.68;2.90;;;;;;;;;;5092256;28;20024;-66
2022/06/25 13:17:03;;;;;;;12.23;3.05;;;;;;;;;;5088633;28;20047;-66
2022/06/25 13:19:29;;;;;;;7.60;3.13;;;;;;;;;;5072149;28;20028;-67
2022/06/25 13:21:57;;;;;;;5.15;3.40;;;;;;;;;;5072039;28;20401;-67
2022/06/25 13:24:23;;;;;;;4.93;3.20;;;;;;;;;;5070984;28;20041;-68
2022/06/25 13:26:49;;;;;;;5.97;3.20;;;;;;;;;;5071450;28;20055;-66
2022/06/25 13:29:14;;;;;;;4.45;2.97;;;;;;;;;;5071703;28;20033;-68
2022/06/25 13:31:40;;;;;;;8.20;3.25;;;;;;;;;;5070591;28;20025;-68
2022/06/25 13:34:07;;;;;;;3.97;3.15;;;;;;;;;;5072017;28;20098;-67
2022/06/25 13:36:33;;;;;;;6.07;3.22;;;;;;;;;;5086295;28;20031;-66
2022/06/25 13:38:58;;;;;;;6.10;3.08;;;;;;;;;;5091303;28;20500;-67
2022/06/25 13:41:24;;;;;;;4.93;3.10;;;;;;;;;;5091732;28;20024;-68
2022/06/25 13:43:54;;;;;;;5.57;3.65;;;;;;;;;;5091939;28;20024;-67
2022/06/25 13:46:19;;;;;;;;;;;;;;;;;;5091930;28;20084;-67
2022/06/25 13:48:45;;;;;;;6.80;3.63;;;;;;;;;;5092776;28;19931;-68
2022/06/25 13:51:10;;;;;;;4.63;3.15;;;;;;;;;;5095590;28;20020;-68
2022/06/25 13:53:36;;;;;;;3.80;2.90;;;;;;;;;;5095189;28;20465;-67
2022/06/25 13:56:01;;;;;;;6.03;3.08;;;;;;;;;;5095212;28;20028;-66
2022/06/25 13:58:27;;;;;;;4.07;2.70;;;;;;;;;;5095251;28;20035;-68
2022/06/25 14:00:52;;;;;;;11.73;3.30;;;;;;;;;;5095198;28;20123;-67
2022/06/25 14:03:18;;;;;;;6.47;3.10;;;;;;;;;;5094873;28;20031;-67
2022/06/25 14:05:44;;;;;;;3.90;2.80;;;;;;;;;;5088564;28;20473;-66
2022/06/25 14:08:09;;;;;;;5.22;3.03;;;;;;;;;;5083381;28;20020;-67
2022/06/25 14:10:35;;;;;;;7.03;3.45;;;;;;;;;;5074379;28;20032;-66
2022/06/25 14:13:00;;;;;;;7.38;3.38;;;;;;;;;;5074535;28;20024;-67
2022/06/25 14:15:26;;;;;;;5.10;2.92;;;;;;;;;;5074613;28;20087;-68
2022/06/25 14:17:51;;;;;;;4.78;3.47;;;;;;;;;;5084520;28;20504;-66
2022/06/25 14:20:17;;;;;;;8.38;4.00;;;;;;;;;;5094684;28;20540;-66
2022/06/25 14:22:42;;;;;;;7.10;3.00;;;;;;;;;;5094210;28;20030;-67
2022/06/25 14:25:29;;;;;;;5.55;3.03;;;;;;;;;;5094110;28;20036;-66
2022/06/25 14:27:59;;;;;;;4.28;2.85;;;;;;;;;;5094367;28;20058;-66
2022/06/25 14:30:27;;;;;;;6.55;3.22;;;;;;;;;;5094103;28;20035;-67
2022/06/25 14:32:53;;;;;;;7.03;4.18;;;;;;;;;;5094524;28;20076;-67
2022/06/25 14:35:19;;;;;;;8.77;4.40;;;;;;;;;;5094216;28;20031;-66
2022/06/25 14:43:14;;;;;;;8.30;4.13;;;;;;;;;;5094517;28;20039;-66
2022/06/25 14:45:39;;;;;;;8.32;4.00;;;;;;;;;;5094118;28;20028;-67
2022/06/25 14:48:07;;;;;;;8.43;3.85;;;;;;;;;;5093914;28;20031;-67
2022/06/25 14:50:33;;;;;;;12.27;4.35;;;;;;;;;;5094048;28;20058;-68
2022/06/25 14:52:58;;;;;;;8.73;4.20;;;;;;;;;;5093932;28;20056;-68
2022/06/25 14:55:24;;;;;;;8.40;3.75;;;;;;;;;;5094079;28;20031;-68
2022/06/25 14:57:50;;;;;;;8.38;3.97;;;;;;;;;;5094068;28;20035;-67
2022/06/25 15:00:15;;;;;;;9.32;4.43;;;;;;;;;;5093879;28;20028;-66